Time;durP1;ratioP1;P1;durP2;ratioP2;P2;SDS_P1;SDS_P2;PMS_P1;PMS_P2;Temp;Humidity;BMP_temperature;BMP_pressure;BME280_temperature;BME280_humidity;BME280_pressure;Samples;Min_cycle;Max_cycle;Signal;HPM_P1;HPM_P2
2023/05/27 00:01:01;;;;;;;13.03;12.00;;;10.40;99.90;;;;;;4811713;29;21337;-53
2023/05/27 00:03:27;;;;;;;12.77;11.77;;;10.40;99.90;;;;;;4812631;29;20254;-51
2023/05/27 00:05:53;;;;;;;13.10;12.23;;;10.30;99.90;;;;;;4812852;29;20200;-51
2023/05/27 00:08:18;;;;;;;13.10;12.10;;;10.30;99.90;;;;;;4812681;29;20204;-50
2023/05/27 00:10:44;;;;;;;14.00;12.80;;;10.20;99.90;;;;;;4812832;29;21254;-50
2023/05/27 00:13:11;;;;;;;13.10;12.20;;;10.20;99.90;;;;;;4812442;29;20225;-52
2023/05/27 00:15:40;;;;;;;12.73;11.93;;;10.20;99.90;;;;;;4812726;29;20510;-55
2023/05/27 00:18:06;;;;;;;13.40;12.30;;;10.10;99.90;;;;;;4812411;29;20473;-51
2023/05/27 00:20:31;;;;;;;13.67;12.27;;;10.00;99.90;;;;;;4812540;29;20521;-53
2023/05/27 00:22:59;;;;;;;13.30;12.20;;;10.00;99.90;;;;;;4812372;29;20243;-51
2023/05/27 00:25:25;;;;;;;13.70;12.40;;;10.00;99.90;;;;;;4811357;29;20263;-54
2023/05/27 00:27:50;;;;;;;12.63;11.87;;;9.90;99.90;;;;;;4811502;29;20465;-55
2023/05/27 00:30:16;;;;;;;13.13;12.33;;;9.90;99.90;;;;;;4813014;29;20967;-47
2023/05/27 00:32:42;;;;;;;12.17;11.37;;;9.90;99.90;;;;;;4811209;29;20196;-48
2023/05/27 00:35:08;;;;;;;13.30;12.40;;;9.80;99.90;;;;;;4812379;29;20225;-51
2023/05/27 00:37:34;;;;;;;12.13;11.30;;;9.80;99.90;;;;;;4812579;29;21223;-51
2023/05/27 00:39:59;;;;;;;13.70;12.80;;;9.80;99.90;;;;;;4812532;29;20423;-53
2023/05/27 00:42:25;;;;;;;12.67;11.90;;;9.70;99.90;;;;;;4812441;29;20206;-53
2023/05/27 00:44:51;;;;;;;13.23;12.23;;;9.70;99.90;;;;;;4811993;29;20496;-53
2023/05/27 00:47:17;;;;;;;14.33;13.03;;;9.60;99.90;;;;;;4811612;29;20207;-51
2023/05/27 00:49:44;;;;;;;13.10;12.30;;;9.60;99.90;;;;;;4812027;29;20497;-52
2023/05/27 00:52:10;;;;;;;12.83;11.87;;;9.50;99.90;;;;;;4812050;29;20492;-55
2023/05/27 00:54:36;;;;;;;13.00;12.00;;;9.50;99.90;;;;;;4811053;29;20540;-48
2023/05/27 00:57:02;;;;;;;13.20;12.20;;;9.50;99.90;;;;;;4811198;29;20876;-50
2023/05/27 00:59:28;;;;;;;13.93;12.93;;;9.40;99.90;;;;;;4812083;29;20697;-51
2023/05/27 01:01:54;;;;;;;14.40;13.10;;;9.40;99.90;;;;;;4811648;29;20652;-52
2023/05/27 01:04:20;;;;;;;12.97;12.03;;;9.40;99.90;;;;;;4811993;29;20435;-52
2023/05/27 01:07:14;;;;;;;13.77;12.87;;;9.30;99.90;;;;;;4811803;29;20203;-51
2023/05/27 01:09:39;;;;;;;12.97;12.07;;;9.30;99.90;;;;;;4812232;29;20436;-51
2023/05/27 01:12:08;;;;;;;13.20;12.20;;;9.30;99.90;;;;;;4811885;29;20428;-52
2023/05/27 01:14:36;;;;;;;13.77;12.67;;;9.20;99.90;;;;;;4812011;29;20215;-52
2023/05/27 01:17:05;;;;;;;13.43;12.53;;;9.20;99.90;;;;;;4811573;29;20431;-54
2023/05/27 01:19:34;;;;;;;13.37;12.10;;;9.20;99.90;;;;;;4811616;29;21051;-52
2023/05/27 01:22:01;;;;;;;13.37;12.37;;;9.20;99.90;;;;;;4811464;29;20594;-50
2023/05/27 01:24:27;;;;;;;13.90;12.83;;;9.20;99.90;;;;;;4811530;29;20439;-54
2023/05/27 01:26:55;;;;;;;13.50;12.37;;;9.10;99.90;;;;;;4811808;29;20443;-55
2023/05/27 01:29:21;;;;;;;13.23;12.13;;;9.10;99.90;;;;;;4811920;29;20805;-54
2023/05/27 01:31:50;;;;;;;12.73;11.63;;;9.10;99.90;;;;;;4813880;29;20441;-49
2023/05/27 01:34:22;;;;;;;13.83;12.83;;;9.00;99.90;;;;;;4814790;29;20225;-50
2023/05/27 01:36:54;;;;;;;14.63;13.23;;;9.10;99.90;;;;;;4814728;29;20857;-50
2023/05/27 01:39:21;;;;;;;13.87;12.87;;;9.00;99.90;;;;;;4814678;29;20426;-52
2023/05/27 01:41:47;;;;;;;13.23;12.20;;;9.00;99.90;;;;;;4814732;29;20529;-52
2023/05/27 01:44:17;;;;;;;13.87;12.80;;;9.00;99.90;;;;;;4814786;29;20442;-51
2023/05/27 01:46:43;;;;;;;13.20;12.40;;;8.90;99.90;;;;;;4814579;29;20503;-48
2023/05/27 01:49:09;;;;;;;14.27;13.07;;;8.90;99.90;;;;;;4814289;29;20495;-50
2023/05/27 01:51:36;;;;;;;13.17;12.10;;;8.90;99.90;;;;;;4814821;29;20523;-50
2023/05/27 01:54:02;;;;;;;13.00;12.00;;;8.80;99.90;;;;;;4813368;29;20851;-52
2023/05/27 01:56:29;;;;;;;13.57;11.83;;;8.80;99.90;;;;;;4814443;29;20439;-50
2023/05/27 01:58:55;;;;;;;13.40;12.40;;;8.70;99.90;;;;;;4814435;29;20421;-55
2023/05/27 02:01:22;;;;;;;14.57;13.20;;;8.70;99.90;;;;;;4814558;29;20439;-54
2023/05/27 02:03:47;;;;;;;13.83;12.57;;;8.70;99.90;;;;;;4814319;29;20424;-52
2023/05/27 02:06:13;;;;;;;13.57;12.47;;;8.60;99.90;;;;;;4814653;29;20461;-52
2023/05/27 02:08:39;;;;;;;13.87;12.97;;;8.60;99.90;;;;;;4814170;29;20251;-50
2023/05/27 02:11:05;;;;;;;12.90;12.00;;;8.60;99.90;;;;;;4814058;29;20193;-53
2023/05/27 02:13:31;;;;;;;13.20;12.10;;;8.50;99.90;;;;;;4814444;29;20187;-43
2023/05/27 02:15:56;;;;;;;14.00;12.60;;;8.50;99.90;;;;;;4812752;29;20833;-54
2023/05/27 02:18:22;;;;;;;13.40;12.00;;;8.40;99.90;;;;;;4813945;29;20182;-54
2023/05/27 02:20:47;;;;;;;12.73;11.93;;;8.40;99.90;;;;;;4814257;29;20194;-51
2023/05/27 02:23:13;;;;;;;13.03;12.10;;;8.40;99.90;;;;;;4813863;29;20244;-52
2023/05/27 02:25:39;;;;;;;13.20;12.20;;;8.40;99.90;;;;;;4814161;29;20551;-54
2023/05/27 02:28:04;;;;;;;13.77;12.47;;;8.30;99.90;;;;;;4812485;29;20201;-54
2023/05/27 02:30:33;;;;;;;13.70;12.70;;;8.30;99.90;;;;;;4814446;29;20266;-49
2023/05/27 02:32:59;;;;;;;14.67;13.37;;;8.20;99.90;;;;;;4814313;29;20213;-50
2023/05/27 02:35:24;;;;;;;13.23;12.23;;;8.20;99.90;;;;;;4813672;29;20573;-50
2023/05/27 02:37:50;;;;;;;14.73;13.37;;;8.10;99.90;;;;;;4797533;29;20297;-49
2023/05/27 02:40:28;;;;;;;14.60;13.30;;;8.10;99.90;;;;;;4813791;29;20673;-50
2023/05/27 02:42:55;;;;;;;14.07;12.73;;;8.10;99.90;;;;;;4813338;29;20217;-52
2023/05/27 02:45:21;;;;;;;14.20;13.20;;;8.00;99.90;;;;;;4813068;29;21316;-52
2023/05/27 02:47:46;;;;;;;14.53;13.50;;;8.00;99.90;;;;;;4812999;29;20503;-51
2023/05/27 02:50:12;;;;;;;13.77;12.80;;;7.90;99.90;;;;;;4813789;29;20276;-49
2023/05/27 02:52:38;;;;;;;14.00;12.83;;;7.90;99.90;;;;;;4812134;29;20197;-53
2023/05/27 02:55:04;;;;;;;14.17;13.07;;;7.90;99.90;;;;;;4813481;29;20226;-51
2023/05/27 02:57:30;;;;;;;13.50;12.40;;;7.90;99.90;;;;;;4813692;29;20665;-51
2023/05/27 02:59:55;;;;;;;14.77;13.27;;;7.80;99.90;;;;;;4813553;29;20434;-49
2023/05/27 03:02:21;;;;;;;14.40;13.30;;;7.80;99.90;;;;;;4813461;29;20190;-53
2023/05/27 03:04:47;;;;;;;14.27;13.17;;;7.80;99.90;;;;;;4812488;29;20202;-51
2023/05/27 03:07:13;;;;;;;13.60;12.70;;;7.80;99.90;;;;;;4813483;29;20211;-53
2023/05/27 03:09:39;;;;;;;13.53;12.53;;;7.80;99.90;;;;;;4813755;29;20959;-50
2023/05/27 03:12:05;;;;;;;14.43;13.07;;;7.70;99.90;;;;;;4813072;29;20197;-52
2023/05/27 03:14:31;;;;;;;14.00;12.77;;;7.70;99.90;;;;;;4813131;29;20212;-54
2023/05/27 03:16:57;;;;;;;14.00;12.80;;;7.70;99.90;;;;;;4812365;29;20443;-52
2023/05/27 03:19:22;;;;;;;13.67;12.50;;;7.70;99.90;;;;;;4813118;29;20438;-50
2023/05/27 03:21:48;;;;;;;13.90;12.60;;;7.60;99.90;;;;;;4813480;29;20194;-49
2023/05/27 03:24:13;;;;;;;13.90;12.73;;;7.60;99.90;;;;;;4813055;29;20289;-51
2023/05/27 03:26:39;;;;;;;13.43;12.33;;;7.60;99.90;;;;;;4813089;29;20221;-50
2023/05/27 03:29:05;;;;;;;13.53;12.50;;;7.60;99.90;;;;;;4813232;29;20201;-52
2023/05/27 03:31:31;;;;;;;14.23;12.93;;;7.60;99.90;;;;;;4813247;29;20293;-52
2023/05/27 03:33:56;;;;;;;13.57;12.40;;;7.60;99.90;;;;;;4812904;29;20619;-52
2023/05/27 03:36:22;;;;;;;13.90;12.60;;;7.60;99.90;;;;;;4813093;29;20188;-52
2023/05/27 03:38:47;;;;;;;14.13;13.00;;;7.60;99.90;;;;;;4813209;29;20273;-50
2023/05/27 03:41:13;;;;;;;14.30;13.10;;;7.60;99.90;;;;;;4812806;29;20961;-51
2023/05/27 03:43:39;;;;;;;14.20;13.10;;;7.60;99.90;;;;;;4813029;29;20194;-52
2023/05/27 03:46:06;;;;;;;13.80;12.77;;;7.60;99.90;;;;;;4812387;29;20194;-50
2023/05/27 03:48:32;;;;;;;13.67;12.00;;;7.60;99.90;;;;;;4812725;29;20185;-53
2023/05/27 03:50:57;;;;;;;14.40;13.30;;;7.60;99.90;;;;;;4812637;29;20415;-53
2023/05/27 03:53:23;;;;;;;12.83;11.60;;;7.60;99.90;;;;;;4812649;29;20198;-51
2023/05/27 03:55:48;;;;;;;12.90;12.00;;;7.60;99.90;;;;;;4812870;29;20249;-51
2023/05/27 03:58:14;;;;;;;13.00;12.10;;;7.60;99.90;;;;;;4812708;29;20591;-48
2023/05/27 04:00:41;;;;;;;13.23;12.10;;;7.60;99.90;;;;;;4812576;29;20675;-50
2023/05/27 04:03:07;;;;;;;13.40;12.40;;;7.70;99.90;;;;;;4811138;29;20208;-54
2023/05/27 04:05:34;;;;;;;14.20;12.83;;;7.60;99.90;;;;;;4813013;29;20430;-51
2023/05/27 04:08:00;;;;;;;12.80;11.90;;;7.70;99.90;;;;;;4812609;29;20439;-53
2023/05/27 04:10:26;;;;;;;13.70;12.50;;;7.70;99.90;;;;;;4812255;29;20442;-54
2023/05/27 04:12:52;;;;;;;13.13;12.10;;;7.80;99.90;;;;;;4812524;29;20521;-50
2023/05/27 04:15:17;;;;;;;13.47;12.20;;;7.80;99.90;;;;;;4811676;29;20258;-54
2023/05/27 04:17:43;;;;;;;13.80;12.60;;;7.90;99.90;;;;;;4812609;29;20525;-50
2023/05/27 04:20:13;;;;;;;13.90;12.60;;;8.00;99.90;;;;;;4812458;29;20197;-59
2023/05/27 04:22:40;;;;;;;12.90;11.80;;;8.00;99.90;;;;;;4811862;29;20708;-53
2023/05/27 04:25:06;;;;;;;13.90;12.80;;;8.00;99.90;;;;;;4812112;29;20492;-52
2023/05/27 04:27:32;;;;;;;12.80;11.90;;;8.10;99.90;;;;;;4811840;29;20447;-51
2023/05/27 04:29:57;;;;;;;13.40;12.40;;;8.10;99.90;;;;;;4812518;29;20430;-54
2023/05/27 04:32:24;;;;;;;14.13;12.93;;;8.10;99.90;;;;;;4812490;29;21147;-52
2023/05/27 04:34:50;;;;;;;13.30;12.30;;;8.20;99.90;;;;;;4812245;29;20693;-50
2023/05/27 04:37:17;;;;;;;13.67;12.57;;;8.20;99.90;;;;;;4810739;29;20443;-53
2023/05/27 04:39:45;;;;;;;13.93;12.73;;;8.30;99.90;;;;;;4812296;29;20250;-51
2023/05/27 04:42:12;;;;;;;13.90;12.93;;;8.30;99.90;;;;;;4812222;29;20425;-51
2023/05/27 04:44:38;;;;;;;13.73;12.67;;;8.40;99.90;;;;;;4812087;29;20530;-52
2023/05/27 04:47:05;;;;;;;14.00;12.73;;;8.50;99.90;;;;;;4810118;29;20461;-49
2023/05/27 04:49:31;;;;;;;15.27;13.77;;;8.50;99.90;;;;;;4811522;29;20459;-50
2023/05/27 04:51:57;;;;;;;14.90;13.53;;;8.60;99.90;;;;;;4795611;29;20513;-54
2023/05/27 04:54:23;;;;;;;14.40;13.30;;;8.70;99.90;;;;;;4812364;29;20470;-50
2023/05/27 04:56:51;;;;;;;14.67;13.40;;;8.70;99.90;;;;;;4795786;29;20534;-50
2023/05/27 04:59:19;;;;;;;13.63;12.40;;;8.80;99.90;;;;;;4811879;29;20251;-49
2023/05/27 05:02:09;;;;;;;13.70;12.80;;;8.90;99.90;;;;;;4810201;29;20834;-49
2023/05/27 05:04:34;;;;;;;13.83;12.80;;;8.90;99.90;;;;;;4811422;29;20465;-52
2023/05/27 05:07:00;;;;;;;14.50;13.27;;;9.10;99.90;;;;;;4815732;29;20432;-53
2023/05/27 05:09:25;;;;;;;13.90;12.90;;;9.20;99.90;;;;;;4815302;29;20231;-50
2023/05/27 05:11:51;;;;;;;15.80;14.27;;;9.20;99.90;;;;;;4814942;29;20194;-53
2023/05/27 05:14:17;;;;;;;14.27;13.27;;;9.30;99.90;;;;;;4815159;29;20218;-53
2023/05/27 05:16:42;;;;;;;13.87;12.47;;;9.40;99.90;;;;;;4814930;29;20274;-52
2023/05/27 05:19:08;;;;;;;13.50;12.50;;;9.60;99.90;;;;;;4815027;29;20191;-51
2023/05/27 05:21:33;;;;;;;13.63;12.33;;;9.60;99.90;;;;;;4814843;29;20597;-54
2023/05/27 05:23:59;;;;;;;14.23;13.17;;;9.70;99.90;;;;;;4814899;29;20236;-54
2023/05/27 05:26:25;;;;;;;15.50;13.57;;;9.80;99.90;;;;;;4814865;29;20642;-52
2023/05/27 05:28:51;;;;;;;14.10;13.10;;;9.90;99.90;;;;;;4814937;29;20196;-50
2023/05/27 05:31:16;;;;;;;14.70;13.33;;;10.00;99.90;;;;;;4814270;29;20786;-54
2023/05/27 05:33:42;;;;;;;14.77;13.57;;;10.10;99.90;;;;;;4814111;29;20203;-49
2023/05/27 05:36:08;;;;;;;14.30;13.20;;;10.20;99.90;;;;;;4814965;29;20289;-50
2023/05/27 05:38:34;;;;;;;15.30;14.00;;;10.20;99.90;;;;;;4815025;29;20991;-50
2023/05/27 05:41:00;;;;;;;14.90;13.70;;;10.30;99.90;;;;;;4814708;29;20521;-49
2023/05/27 05:43:26;;;;;;;14.33;13.13;;;10.40;99.90;;;;;;4814747;29;20712;-53
2023/05/27 05:45:52;;;;;;;15.17;14.00;;;10.50;99.90;;;;;;4814750;29;20510;-50
2023/05/27 05:48:17;;;;;;;13.40;12.60;;;10.60;99.90;;;;;;4814659;29;20442;-56
2023/05/27 05:50:43;;;;;;;14.60;13.37;;;10.70;99.90;;;;;;4814548;29;20215;-52
2023/05/27 05:53:10;;;;;;;14.03;12.97;;;10.80;99.90;;;;;;4814750;29;20680;-51
2023/05/27 05:55:36;;;;;;;14.73;13.40;;;10.90;99.90;;;;;;4814564;29;20212;-50
2023/05/27 05:58:01;;;;;;;15.03;13.73;;;11.00;99.90;;;;;;4814117;29;20438;-51
2023/05/27 06:00:27;;;;;;;14.10;13.07;;;11.10;99.90;;;;;;4813740;29;20293;-50
2023/05/27 06:02:53;;;;;;;14.37;13.13;;;11.20;99.90;;;;;;4814403;29;20948;-51
2023/05/27 06:05:19;;;;;;;14.23;13.33;;;11.30;99.90;;;;;;4814363;29;20451;-53
2023/05/27 06:07:45;;;;;;;13.20;12.13;;;11.40;99.90;;;;;;4814430;29;20197;-52
2023/05/27 06:10:10;;;;;;;13.10;12.10;;;11.50;99.90;;;;;;4814284;29;20194;-53
2023/05/27 06:12:36;;;;;;;13.00;12.00;;;11.60;99.90;;;;;;4812805;29;20469;-49
2023/05/27 06:15:02;;;;;;;12.90;12.00;;;11.70;99.90;;;;;;4814166;29;20786;-50
2023/05/27 06:17:28;;;;;;;13.10;12.30;;;11.70;99.90;;;;;;4813359;29;20293;-48
2023/05/27 06:19:53;;;;;;;13.10;12.20;;;11.80;99.90;;;;;;4814271;29;20510;-50
2023/05/27 06:22:19;;;;;;;13.87;12.73;;;11.90;99.90;;;;;;4813880;29;20613;-50
2023/05/27 06:24:45;;;;;;;13.30;12.30;;;11.90;99.90;;;;;;4814146;29;20190;-54
2023/05/27 06:27:11;;;;;;;12.43;11.53;;;12.00;99.90;;;;;;4814049;29;20958;-52
2023/05/27 06:29:36;;;;;;;13.30;12.13;;;12.10;99.90;;;;;;4814329;29;20190;-52
2023/05/27 06:32:02;;;;;;;12.47;11.57;;;12.20;99.90;;;;;;4812664;29;20198;-44
2023/05/27 06:34:27;;;;;;;13.10;12.17;;;12.30;99.90;;;;;;4813045;29;21130;-52
2023/05/27 06:36:53;;;;;;;12.87;12.00;;;12.40;99.90;;;;;;4813944;29;20688;-53
2023/05/27 06:39:19;;;;;;;13.43;12.07;;;12.50;99.90;;;;;;4813673;29;20200;-53
2023/05/27 06:41:44;;;;;;;12.37;11.67;;;12.60;99.90;;;;;;4814206;29;20554;-47
2023/05/27 06:44:10;;;;;;;12.13;11.33;;;12.70;99.90;;;;;;4813756;29;20208;-52
2023/05/27 06:46:35;;;;;;;12.67;11.70;;;12.80;99.90;;;;;;4813377;29;20209;-52
2023/05/27 06:49:01;;;;;;;12.80;11.60;;;12.90;99.90;;;;;;4813695;29;20270;-50
2023/05/27 06:51:27;;;;;;;12.43;11.53;;;13.00;99.90;;;;;;4813578;29;20193;-54
2023/05/27 06:53:52;;;;;;;12.27;11.37;;;13.10;99.90;;;;;;4813539;29;20194;-46
2023/05/27 06:56:18;;;;;;;12.20;11.40;;;13.20;99.90;;;;;;4813478;29;20539;-50
2023/05/27 06:58:45;;;;;;;12.13;11.33;;;13.30;99.90;;;;;;4813769;29;20587;-49
2023/05/27 07:01:11;;;;;;;12.53;11.63;;;13.40;99.90;;;;;;4810420;29;20827;-52
2023/05/27 07:03:36;;;;;;;12.10;11.20;;;13.60;99.90;;;;;;4808328;29;20449;-55
2023/05/27 07:06:02;;;;;;;13.33;12.17;;;13.70;99.90;;;;;;4813685;29;20258;-46
2023/05/27 07:08:28;;;;;;;11.20;10.37;;;13.80;99.90;;;;;;4796561;29;20454;-55
2023/05/27 07:10:53;;;;;;;11.73;11.00;;;13.80;99.90;;;;;;4812121;29;20202;-53
2023/05/27 07:13:19;;;;;;;12.20;11.50;;;14.00;99.90;;;;;;4813409;29;20618;-50
2023/05/27 07:15:45;;;;;;;11.67;10.97;;;14.10;99.90;;;;;;4812901;29;20218;-53
2023/05/27 07:18:10;;;;;;;11.40;10.60;;;14.20;99.90;;;;;;4813283;29;20281;-49
2023/05/27 07:20:36;;;;;;;11.80;11.00;;;14.30;99.10;;;;;;4813199;29;20241;-54
2023/05/27 07:23:01;;;;;;;12.00;11.10;;;14.40;98.00;;;;;;4813023;29;20230;-53
2023/05/27 07:25:27;;;;;;;12.60;11.60;;;14.40;97.90;;;;;;4813127;29;20308;-48
2023/05/27 07:27:53;;;;;;;13.20;12.20;;;14.50;98.00;;;;;;4812472;29;20809;-51
2023/05/27 07:30:18;;;;;;;13.33;12.27;;;14.60;96.90;;;;;;4811674;29;20198;-52
2023/05/27 07:32:45;;;;;;;12.60;11.70;;;14.70;97.20;;;;;;4810769;29;20202;-52
2023/05/27 07:35:11;;;;;;;12.10;11.40;;;14.80;97.70;;;;;;4812910;29;20236;-51
2023/05/27 07:37:36;;;;;;;11.33;10.67;;;15.00;97.20;;;;;;4811554;29;20439;-53
2023/05/27 07:40:03;;;;;;;12.60;11.80;;;15.10;95.80;;;;;;4812917;29;20193;-43
2023/05/27 07:42:29;;;;;;;11.93;11.03;;;15.20;95.70;;;;;;4813126;29;20193;-42
2023/05/27 07:44:55;;;;;;;11.47;10.67;;;15.30;95.00;;;;;;4812767;29;20438;-42
2023/05/27 07:47:21;;;;;;;11.77;10.73;;;15.30;93.50;;;;;;4796457;29;20189;-48
2023/05/27 07:49:46;;;;;;;10.70;10.00;;;15.20;93.70;;;;;;4813096;29;20802;-45
2023/05/27 07:52:12;;;;;;;12.10;11.00;;;15.30;94.50;;;;;;4812649;29;20439;-42
2023/05/27 07:54:37;;;;;;;10.73;10.13;;;15.40;93.80;;;;;;4813030;29;20260;-44
2023/05/27 07:57:04;;;;;;;11.50;10.70;;;15.50;93.00;;;;;;4812648;29;20198;-46
2023/05/27 07:59:29;;;;;;;12.57;11.37;;;15.50;92.30;;;;;;4811905;29;20186;-43
2023/05/27 08:01:55;;;;;;;12.10;11.30;;;15.60;92.30;;;;;;4795402;29;20503;-43
2023/05/27 08:04:21;;;;;;;12.00;11.00;;;15.70;92.40;;;;;;4812850;29;20687;-42
2023/05/27 08:06:46;;;;;;;11.67;10.87;;;15.90;91.60;;;;;;4809617;29;20193;-43
2023/05/27 08:09:12;;;;;;;12.13;11.33;;;16.00;91.00;;;;;;4811861;29;20229;-44
2023/05/27 08:11:38;;;;;;;12.70;11.70;;;16.10;91.20;;;;;;4812585;29;20239;-44
2023/05/27 08:14:03;;;;;;;11.50;10.40;;;16.40;90.60;;;;;;4812068;29;20201;-44
2023/05/27 08:16:29;;;;;;;11.57;10.90;;;16.50;89.70;;;;;;4810923;29;20551;-45
2023/05/27 08:18:54;;;;;;;11.07;10.40;;;16.60;88.60;;;;;;4812265;29;20193;-44
2023/05/27 08:21:20;;;;;;;12.40;11.70;;;16.70;86.30;;;;;;4812416;29;20573;-46
2023/05/27 08:23:46;;;;;;;12.33;11.47;;;16.90;84.80;;;;;;4812385;29;20305;-42
2023/05/27 08:26:11;;;;;;;11.77;10.97;;;17.00;82.70;;;;;;4812455;29;20255;-46
2023/05/27 08:28:37;;;;;;;11.30;10.60;;;17.00;80.60;;;;;;4812795;29;20521;-45
2023/05/27 08:31:03;;;;;;;11.70;10.90;;;17.10;78.30;;;;;;4812096;29;20202;-44
2023/05/27 08:33:29;;;;;;;11.73;10.93;;;17.30;76.10;;;;;;4812386;29;20229;-42
2023/05/27 08:35:56;;;;;;;11.87;11.17;;;17.40;74.50;;;;;;4811577;29;20566;-43
2023/05/27 08:38:21;;;;;;;11.40;10.60;;;17.40;72.90;;;;;;4811837;29;20303;-44
2023/05/27 08:40:48;;;;;;;11.83;10.87;;;17.50;71.60;;;;;;4814471;29;20522;-43
2023/05/27 08:43:14;;;;;;;11.03;10.43;;;17.60;70.50;;;;;;4816056;29;20194;-43
2023/05/27 08:45:46;;;;;;;11.97;11.27;;;17.80;68.00;;;;;;4815679;29;20446;-43
2023/05/27 08:48:11;;;;;;;11.63;10.83;;;18.00;69.40;;;;;;4815031;29;20470;-44
2023/05/27 08:50:37;;;;;;;12.00;10.90;;;18.10;67.70;;;;;;4815545;29;21548;-43
2023/05/27 08:53:03;;;;;;;11.00;10.30;;;18.30;67.70;;;;;;4815604;29;21365;-46
2023/05/27 08:55:31;;;;;;;12.03;11.13;;;18.50;65.20;;;;;;4815348;29;20212;-48
2023/05/27 08:57:58;;;;;;;10.77;10.20;;;18.70;65.40;;;;;;4815751;29;20832;-43
2023/05/27 09:00:25;;;;;;;11.80;10.90;;;18.80;65.00;;;;;;4815363;29;20434;-47
2023/05/27 09:02:50;;;;;;;9.30;8.60;;;19.10;60.70;;;;;;4815490;29;20427;-47
2023/05/27 09:05:17;;;;;;;11.47;10.70;;;19.20;60.80;;;;;;4815772;29;20445;-45
2023/05/27 09:07:43;;;;;;;12.27;11.47;;;19.40;61.00;;;;;;4813974;29;20189;-47
2023/05/27 09:10:09;;;;;;;11.67;10.97;;;19.70;58.50;;;;;;4814889;29;20537;-44
2023/05/27 09:12:35;;;;;;;10.83;10.23;;;19.90;56.50;;;;;;4815212;29;20438;-45
2023/05/27 09:15:05;;;;;;;11.47;10.77;;;20.20;55.50;;;;;;4815084;29;20470;-47
2023/05/27 09:17:31;;;;;;;11.47;10.80;;;20.60;53.30;;;;;;4798373;29;20430;-42
2023/05/27 09:19:57;;;;;;;11.33;10.53;;;20.80;53.50;;;;;;4814898;29;20435;-43
2023/05/27 09:22:25;;;;;;;11.87;10.97;;;21.00;51.90;;;;;;4815116;29;20293;-44
2023/05/27 09:24:54;;;;;;;11.40;10.50;;;21.30;51.30;;;;;;4815074;29;20218;-42
2023/05/27 09:27:27;;;;;;;11.87;11.27;;;21.70;50.00;;;;;;4815396;29;20427;-44
2023/05/27 09:29:53;;;;;;;12.37;11.10;;;22.20;49.30;;;;;;4815206;29;20437;-47
2023/05/27 09:32:27;;;;;;;10.47;9.87;;;22.70;46.30;;;;;;4814934;29;20443;-48
2023/05/27 09:34:53;;;;;;;11.30;10.60;;;23.10;45.30;;;;;;4812344;29;20485;-44
2023/05/27 09:37:21;;;;;;;11.80;11.10;;;23.50;44.20;;;;;;4811613;29;20509;-42
2023/05/27 09:39:48;;;;;;;10.40;9.80;;;23.70;42.60;;;;;;4813914;29;20969;-44
2023/05/27 09:42:13;;;;;;;12.07;11.17;;;23.80;40.70;;;;;;4814693;29;20433;-47
2023/05/27 09:44:42;;;;;;;11.70;10.90;;;24.00;38.70;;;;;;4815238;29;20435;-46
2023/05/27 09:47:11;;;;;;;11.90;11.10;;;24.20;39.40;;;;;;4813702;29;20523;-44
2023/05/27 09:49:37;;;;;;;12.00;11.20;;;24.70;37.40;;;;;;4812870;29;20933;-43
2023/05/27 09:52:09;;;;;;;11.07;10.37;;;25.00;35.90;;;;;;4813504;29;20424;-44
2023/05/27 09:54:36;;;;;;;11.50;10.70;;;25.10;35.50;;;;;;4814394;29;20474;-45
2023/05/27 09:57:03;;;;;;;10.30;9.80;;;25.50;33.60;;;;;;4814548;29;20462;-43
2023/05/27 09:59:29;;;;;;;11.83;11.23;;;25.80;33.30;;;;;;4814560;29;20457;-47
2023/05/27 10:01:57;;;;;;;11.40;10.70;;;26.00;32.80;;;;;;4814359;29;20423;-46
2023/05/27 10:04:23;;;;;;;11.97;11.27;;;26.40;32.70;;;;;;4814608;29;20439;-45
2023/05/27 10:06:50;;;;;;;11.23;10.63;;;26.70;31.10;;;;;;4812837;29;20939;-44
2023/05/27 10:09:16;;;;;;;11.73;10.93;;;27.00;30.00;;;;;;4814348;29;20213;-46
2023/05/27 10:11:44;;;;;;;12.60;11.70;;;27.20;29.10;;;;;;4814176;29;20491;-45
2023/05/27 10:14:15;;;;;;;12.27;11.57;;;27.00;28.20;;;;;;4813509;29;20445;-45
2023/05/27 10:16:55;;;;;;;11.00;10.40;;;27.10;29.00;;;;;;4814121;29;21217;-46
2023/05/27 10:19:21;;;;;;;12.20;11.40;;;27.30;29.30;;;;;;4814002;29;20427;-47
2023/05/27 10:21:47;;;;;;;11.97;11.17;;;27.60;27.70;;;;;;4814110;29;20427;-47
2023/05/27 10:24:13;;;;;;;11.90;11.20;;;27.90;27.30;;;;;;4814138;29;20194;-44
2023/05/27 10:26:44;;;;;;;10.67;10.10;;;28.00;27.10;;;;;;4812643;29;20189;-44
2023/05/27 10:29:11;;;;;;;12.67;11.90;;;28.30;26.50;;;;;;4814022;29;20661;-45
2023/05/27 10:31:48;;;;;;;11.53;10.93;;;28.70;25.70;;;;;;4813454;29;20511;-46
2023/05/27 10:34:14;;;;;;;11.17;10.60;;;28.90;25.10;;;;;;4814269;29;20477;-48
2023/05/27 10:36:40;;;;;;;11.27;10.67;;;28.90;25.60;;;;;;4814107;29;20487;-45
2023/05/27 10:39:16;;;;;;;11.80;11.20;;;29.10;25.80;;;;;;4814084;29;20419;-46
2023/05/27 10:41:49;;;;;;;11.20;10.60;;;29.60;24.50;;;;;;4814159;29;20435;-47
2023/05/27 10:44:35;;;;;;;11.87;11.07;;;29.60;24.80;;;;;;4813643;29;20944;-44
2023/05/27 10:47:11;;;;;;;10.90;10.40;;;29.60;24.00;;;;;;4812302;29;20446;-44
2023/05/27 10:49:39;;;;;;;11.90;11.10;;;29.60;23.40;;;;;;4813811;29;20517;-44
2023/05/27 10:52:13;;;;;;;10.40;9.87;;;29.50;23.40;;;;;;4813102;29;20454;-47
2023/05/27 10:54:47;;;;;;;11.40;10.80;;;29.50;23.30;;;;;;4813106;29;20478;-46
2023/05/27 10:57:13;;;;;;;11.83;11.13;;;29.70;23.20;;;;;;4813597;29;20431;-42
2023/05/27 10:59:53;;;;;;;12.10;11.50;;;29.80;22.90;;;;;;4814047;29;20506;-50
2023/05/27 11:02:20;;;;;;;11.93;11.30;;;30.20;21.90;;;;;;4813476;29;20546;-47
2023/05/27 11:04:48;;;;;;;11.60;10.93;;;30.40;22.40;;;;;;4813658;29;20430;-51
2023/05/27 11:07:18;;;;;;;12.00;11.23;;;30.70;21.80;;;;;;4813585;29;20422;-44
2023/05/27 11:09:48;;;;;;;11.33;10.73;;;31.20;20.60;;;;;;4813811;29;20460;-44
2023/05/27 11:12:18;;;;;;;9.70;9.30;;;31.00;19.90;;;;;;4813489;29;20459;-44
2023/05/27 11:14:52;;;;;;;12.20;11.40;;;31.20;20.60;;;;;;4813475;29;20911;-43
2023/05/27 11:17:19;;;;;;;12.00;11.30;;;31.40;20.60;;;;;;4813380;29;21041;-49
2023/05/27 11:19:45;;;;;;;12.60;11.90;;;31.60;20.20;;;;;;4813087;29;21013;-46
2023/05/27 11:22:12;;;;;;;12.80;12.10;;;31.90;19.70;;;;;;4813097;29;20485;-44
2023/05/27 11:24:38;;;;;;;11.60;10.97;;;32.00;19.70;;;;;;4813357;29;21033;-46
2023/05/27 11:27:13;;;;;;;11.53;10.93;;;31.80;19.60;;;;;;4813317;29;20545;-46
2023/05/27 11:29:39;;;;;;;12.10;11.40;;;31.70;19.60;;;;;;4813195;29;20193;-47
2023/05/27 11:32:06;;;;;;;11.67;10.97;;;31.50;19.70;;;;;;4812914;29;20439;-46
2023/05/27 11:34:35;;;;;;;12.60;11.90;;;31.60;19.50;;;;;;4813359;29;20554;-49
2023/05/27 11:37:05;;;;;;;12.20;11.50;;;31.70;19.80;;;;;;4813590;29;20845;-46
2023/05/27 11:39:31;;;;;;;11.90;11.30;;;31.60;20.30;;;;;;4812999;29;20419;-48
2023/05/27 11:41:57;;;;;;;11.80;11.00;;;31.80;19.70;;;;;;4812766;29;20850;-45
2023/05/27 11:44:25;;;;;;;12.47;11.67;;;32.00;20.00;;;;;;4812883;29;20444;-47
2023/05/27 11:46:57;;;;;;;11.00;10.30;;;32.50;18.90;;;;;;4811468;29;20269;-45
2023/05/27 11:49:23;;;;;;;11.80;11.03;;;32.70;18.80;;;;;;4812146;29;20443;-48
2023/05/27 11:51:55;;;;;;;11.10;10.60;;;32.50;18.40;;;;;;4812770;29;20423;-48
2023/05/27 11:54:26;;;;;;;12.10;11.40;;;32.30;19.40;;;;;;4812519;29;20538;-44
2023/05/27 11:56:53;;;;;;;11.20;10.60;;;32.70;18.60;;;;;;4812795;29;20954;-46
2023/05/27 11:59:20;;;;;;;12.13;11.43;;;32.80;18.90;;;;;;4811977;29;20450;-50
2023/05/27 12:01:46;;;;;;;11.00;10.50;;;32.90;18.30;;;;;;4812665;29;20423;-44
2023/05/27 12:04:12;;;;;;;10.00;9.50;;;33.20;18.00;;;;;;4812547;29;20442;-45
2023/05/27 12:06:40;;;;;;;10.77;10.23;;;33.40;18.00;;;;;;4813342;29;20669;-46
2023/05/27 12:09:06;;;;;;;11.00;10.40;;;33.10;17.60;;;;;;4812575;29;20438;-45
2023/05/27 12:11:32;;;;;;;11.70;11.10;;;32.90;17.20;;;;;;4812604;29;20499;-51
2023/05/27 12:13:58;;;;;;;11.57;10.87;;;32.70;17.90;;;;;;4812470;29;21523;-49
2023/05/27 12:16:24;;;;;;;10.43;9.83;;;32.80;18.20;;;;;;4812200;29;20218;-48
2023/05/27 12:18:50;;;;;;;11.10;10.50;;;32.70;17.40;;;;;;4812412;29;20197;-45
2023/05/27 12:21:16;;;;;;;11.77;10.97;;;32.70;17.30;;;;;;4812417;29;20941;-48
2023/05/27 12:23:41;;;;;;;10.80;10.20;;;32.60;17.90;;;;;;4812271;29;20280;-45
2023/05/27 12:26:07;;;;;;;11.43;10.90;;;32.80;17.30;;;;;;4796520;29;20228;-46
2023/05/27 12:28:33;;;;;;;10.60;10.10;;;33.30;16.60;;;;;;4812398;29;20186;-46